createdAt,value
2022-11-15T04:00:56.919Z,8.30
2022-11-15T04:03:42.400Z,8.30
2022-11-15T04:10:40.615Z,8.30
2022-11-15T04:13:25.924Z,8.30
2022-11-15T04:16:13.164Z,8.30
2022-11-15T04:19:16.744Z,8.30
2022-11-15T04:22:20.734Z,8.30
2022-11-15T04:25:06.795Z,8.30
2022-11-15T04:27:52.044Z,8.30
2022-11-15T04:30:37.783Z,8.30
2022-11-15T04:33:24.628Z,8.20
2022-11-15T04:36:28.529Z,8.20
2022-11-15T04:39:14.117Z,8.30
2022-11-15T04:41:59.847Z,8.20
2022-11-15T04:44:45.296Z,8.20
2022-11-15T04:47:30.933Z,8.20
2022-11-15T04:50:18.429Z,8.20
2022-11-15T04:53:03.658Z,8.10
2022-11-15T04:55:49.269Z,8.10
2022-11-15T04:58:34.919Z,8.10
2022-11-15T05:01:20.344Z,8.10
2022-11-15T05:04:21.693Z,8.10
2022-11-15T05:07:08.431Z,8.10
2022-11-15T05:09:54.000Z,8.00
2022-11-15T05:12:39.710Z,8.00
2022-11-15T05:15:24.953Z,8.00
2022-11-15T05:18:10.559Z,7.90
2022-11-15T05:20:56.306Z,7.90
2022-11-15T05:23:43.179Z,7.90
2022-11-15T05:26:28.922Z,7.90
2022-11-15T05:29:14.385Z,7.90
2022-11-15T05:32:00.475Z,7.80
2022-11-15T05:34:46.670Z,7.80
2022-11-15T05:37:32.235Z,7.80
2022-11-15T05:40:19.233Z,7.80
2022-11-15T05:43:05.702Z,7.90
2022-11-15T05:45:51.392Z,7.90
2022-11-15T05:48:38.872Z,7.90
2022-11-15T05:51:24.815Z,7.90
2022-11-15T05:54:11.803Z,8.00
2022-11-15T05:56:58.868Z,8.00
2022-11-15T05:59:44.518Z,8.00
2022-11-15T06:02:30.129Z,8.00
2022-11-15T06:05:15.481Z,8.00
2022-11-15T06:08:01.497Z,8.00
2022-11-15T06:10:46.959Z,7.90
2022-11-15T06:13:34.629Z,7.90
2022-11-15T06:16:20.072Z,7.80
2022-11-15T06:19:07.416Z,7.80
2022-11-15T06:21:52.756Z,7.80
2022-11-15T06:24:38.261Z,7.80
2022-11-15T06:27:23.792Z,7.80
2022-11-15T06:30:11.685Z,7.80
2022-11-15T06:33:01.644Z,7.70
2022-11-15T06:35:47.440Z,7.70
2022-11-15T06:38:32.807Z,7.70
2022-11-15T06:41:18.722Z,7.70
2022-11-15T06:44:04.319Z,7.80
2022-11-15T06:46:51.684Z,7.80
2022-11-15T06:49:37.432Z,7.80
2022-11-15T06:52:23.386Z,7.80
2022-11-15T06:55:10.028Z,7.80
2022-11-15T06:57:55.748Z,7.90
2022-11-15T07:00:41.513Z,7.90
2022-11-15T07:03:28.422Z,7.90
2022-11-15T07:06:14.070Z,7.90
2022-11-15T07:08:59.387Z,8.00
2022-11-15T07:11:45.020Z,8.00
2022-11-15T07:14:30.574Z,8.00
2022-11-15T07:17:16.112Z,8.10
2022-11-15T07:20:03.279Z,8.20
2022-11-15T07:22:48.956Z,8.20
2022-11-15T07:25:35.428Z,8.30
2022-11-15T07:28:20.852Z,8.40
2022-11-15T07:31:08.151Z,8.40
2022-11-15T07:33:53.589Z,8.50
2022-11-15T07:36:40.383Z,8.50
2022-11-15T07:39:25.911Z,8.60
2022-11-15T07:42:30.036Z,8.60
2022-11-15T07:45:15.740Z,8.80
2022-11-15T07:48:01.549Z,8.90
2022-11-15T07:50:47.243Z,9.10
2022-11-15T07:53:35.020Z,9.30
2022-11-15T07:56:21.751Z,9.50
2022-11-15T07:59:07.311Z,9.70
2022-11-15T08:01:53.029Z,9.80
2022-11-15T08:04:38.538Z,10.00
2022-11-15T08:07:24.045Z,10.10
2022-11-15T08:10:12.927Z,10.20
2022-11-15T08:12:59.744Z,10.30
2022-11-15T08:15:45.166Z,10.40
2022-11-15T08:18:30.988Z,10.60
2022-11-15T08:21:22.103Z,10.90
2022-11-15T08:24:11.176Z,11.20
2022-11-15T08:26:58.161Z,11.50
2022-11-15T08:29:44.722Z,11.90
2022-11-15T08:32:31.104Z,12.20
2022-11-15T08:35:17.002Z,12.40
2022-11-15T08:38:02.624Z,12.60
2022-11-15T08:40:48.480Z,12.90
2022-11-15T08:43:35.504Z,13.20
2022-11-15T08:46:21.312Z,13.50
2022-11-15T08:49:07.085Z,13.90
2022-11-15T08:51:52.659Z,14.20
2022-11-15T08:54:38.224Z,14.70
2022-11-15T08:57:23.893Z,15.00
2022-11-15T09:00:13.041Z,15.30
2022-11-15T09:02:58.561Z,15.50
2022-11-15T09:05:44.137Z,15.70
2022-11-15T09:08:47.150Z,16.00
2022-11-15T09:11:33.629Z,16.20
2022-11-15T09:14:18.728Z,16.30
2022-11-15T09:17:08.407Z,16.30
2022-11-15T09:19:54.037Z,16.20
2022-11-15T09:22:40.070Z,16.10
2022-11-15T09:25:25.532Z,16.00
2022-11-15T09:28:10.983Z,16.00
2022-11-15T09:30:59.044Z,16.00
2022-11-15T09:33:46.790Z,16.10
2022-11-15T09:36:32.442Z,16.20
2022-11-15T09:39:17.859Z,16.40
2022-11-15T09:42:24.985Z,16.60
2022-11-15T09:45:18.310Z,16.80
2022-11-15T09:48:32.965Z,17.00
2022-11-15T09:51:26.447Z,17.10
2022-11-15T09:54:46.140Z,17.30
2022-11-15T09:56:52.247Z,17.50
2022-11-15T09:59:41.536Z,17.60
2022-11-15T10:02:20.951Z,17.70
2022-11-15T10:04:48.252Z,17.60
2022-11-15T10:07:22.309Z,17.50
2022-11-15T10:09:54.260Z,17.40
2022-11-15T10:12:21.285Z,17.30
2022-11-15T10:14:54.586Z,17.20
2022-11-15T10:17:47.145Z,17.20
2022-11-15T10:20:21.039Z,17.00
2022-11-15T10:22:52.036Z,16.90
2022-11-15T10:25:22.095Z,16.80
2022-11-15T10:27:56.684Z,16.70
2022-11-15T10:30:24.888Z,16.60
2022-11-15T10:32:51.820Z,16.40
2022-11-15T10:35:25.139Z,16.30
2022-11-15T10:38:04.988Z,16.10
2022-11-15T10:40:31.899Z,16.00
2022-11-15T10:43:07.074Z,15.90
2022-11-15T10:45:35.384Z,15.80
2022-11-15T10:48:25.596Z,15.80
2022-11-15T10:50:54.477Z,15.70
2022-11-15T10:53:27.413Z,15.70
2022-11-15T10:55:57.376Z,15.70
2022-11-15T10:58:36.010Z,15.60
2022-11-15T11:01:28.162Z,15.50
2022-11-15T11:04:00.602Z,15.40
2022-11-15T11:06:28.045Z,15.40
2022-11-15T11:08:58.968Z,15.30
2022-11-15T11:11:26.567Z,15.20
2022-11-15T11:13:53.796Z,15.20
2022-11-15T11:16:38.803Z,15.20
2022-11-15T11:19:16.571Z,15.20
2022-11-15T11:21:52.108Z,15.20
2022-11-15T11:24:30.348Z,15.20
2022-11-15T11:27:09.978Z,15.20
2022-11-15T11:29:50.623Z,15.20
2022-11-15T11:32:31.964Z,15.20
2022-11-15T11:35:07.642Z,15.20
2022-11-15T11:37:41.124Z,15.20
2022-11-15T11:40:20.700Z,15.10
2022-11-15T11:43:00.101Z,15.10
2022-11-15T11:45:50.773Z,15.00
2022-11-15T11:48:30.222Z,15.00
2022-11-15T11:51:02.849Z,15.00
2022-11-15T11:53:38.228Z,14.90
2022-11-15T11:56:16.149Z,14.90
2022-11-15T11:58:45.148Z,14.90
2022-11-15T12:01:18.485Z,15.00
2022-11-15T12:03:48.989Z,15.00
2022-11-15T12:06:27.707Z,15.10
2022-11-15T12:09:03.047Z,15.20
2022-11-15T12:11:38.360Z,15.30
2022-11-15T12:14:17.383Z,15.20
2022-11-15T12:16:44.449Z,15.20
2022-11-15T12:19:11.469Z,15.20
2022-11-15T12:21:44.954Z,15.20
2022-11-15T12:24:17.043Z,15.20
2022-11-15T12:26:50.541Z,15.10
2022-11-15T12:29:24.079Z,15.10
2022-11-15T12:31:56.678Z,15.00
2022-11-15T12:34:46.262Z,15.00
2022-11-15T12:37:52.731Z,15.00
2022-11-15T12:40:35.940Z,15.00
2022-11-15T12:43:27.012Z,15.00
2022-11-15T12:45:53.922Z,15.00
2022-11-15T12:48:57.697Z,15.00
2022-11-15T12:52:05.259Z,14.90
2022-11-15T12:54:55.651Z,14.90
2022-11-15T12:57:34.900Z,14.90
2022-11-15T13:00:25.291Z,14.90
2022-11-15T13:03:25.898Z,14.90
2022-11-15T13:06:06.868Z,14.90
2022-11-15T13:08:51.949Z,14.90
2022-11-15T13:11:48.623Z,14.80
2022-11-15T13:14:48.077Z,14.80
2022-11-15T13:17:26.744Z,14.80
2022-11-15T13:20:04.674Z,14.70
2022-11-15T13:22:52.713Z,14.70
2022-11-15T13:25:32.963Z,14.60
2022-11-15T13:28:07.630Z,14.60
2022-11-15T13:30:34.940Z,14.50
2022-11-15T13:33:11.724Z,14.50
2022-11-15T13:35:41.777Z,14.50
2022-11-15T13:38:19.740Z,14.50
2022-11-15T13:40:46.588Z,14.50
2022-11-15T13:43:30.593Z,14.50
2022-11-15T13:46:09.024Z,14.40
2022-11-15T13:48:37.912Z,14.40
2022-11-15T13:51:07.947Z,14.40
2022-11-15T13:53:38.676Z,14.40
2022-11-15T13:56:07.238Z,14.40
2022-11-15T13:58:35.125Z,14.30
2022-11-15T14:01:04.058Z,14.30
2022-11-15T14:03:32.957Z,14.30
2022-11-15T14:06:15.959Z,14.30
2022-11-15T14:08:58.449Z,14.20
2022-11-15T14:11:26.504Z,14.20
2022-11-15T14:14:06.162Z,14.20
2022-11-15T14:16:37.981Z,14.20
2022-11-15T14:19:06.536Z,14.10
2022-11-15T14:21:34.810Z,14.00
2022-11-15T14:24:17.788Z,14.00
2022-11-15T14:26:44.938Z,14.00
2022-11-15T14:29:24.753Z,14.00
2022-11-15T14:31:51.653Z,14.00
2022-11-15T14:34:18.600Z,14.00
2022-11-15T14:36:47.087Z,14.00
2022-11-15T14:39:14.017Z,14.00
2022-11-15T14:41:41.047Z,13.90
2022-11-15T14:44:11.763Z,13.90
2022-11-15T14:46:38.688Z,13.90
2022-11-15T14:49:05.872Z,13.90
2022-11-15T14:51:34.209Z,13.90
2022-11-15T14:54:02.448Z,13.80
2022-11-15T14:56:29.316Z,13.80
2022-11-15T14:58:56.287Z,13.80
2022-11-15T15:01:26.056Z,13.70
2022-11-15T15:03:55.062Z,13.70
2022-11-15T15:06:22.000Z,13.70
2022-11-15T15:08:51.364Z,13.60
2022-11-15T15:11:23.354Z,13.60
2022-11-15T15:13:51.157Z,13.60
2022-11-15T15:16:18.085Z,13.60
2022-11-15T15:18:45.111Z,13.50
2022-11-15T15:21:20.927Z,13.50
2022-11-15T15:23:47.960Z,13.50
2022-11-15T15:26:15.442Z,13.40
2022-11-15T15:28:43.753Z,13.40
2022-11-15T15:31:11.498Z,13.30
2022-11-15T15:33:38.813Z,13.30
2022-11-15T15:36:06.076Z,13.30
2022-11-15T15:38:33.321Z,13.20
2022-11-15T15:41:02.885Z,13.20
2022-11-15T15:43:29.860Z,13.20
2022-11-15T15:45:58.112Z,13.20
2022-11-15T15:48:25.359Z,13.20
2022-11-15T15:50:52.283Z,13.20
2022-11-15T15:53:19.125Z,13.20
2022-11-15T15:55:46.008Z,13.20
2022-11-15T15:58:12.841Z,13.20
2022-11-15T16:00:39.823Z,13.20
2022-11-15T16:03:08.067Z,13.20
2022-11-15T16:05:35.016Z,13.20
2022-11-15T16:08:01.949Z,13.20
2022-11-15T16:10:31.941Z,13.10
2022-11-15T16:12:59.246Z,13.10
2022-11-15T16:15:28.230Z,13.10
2022-11-15T16:17:56.617Z,13.10
2022-11-15T16:20:31.706Z,13.10
2022-11-15T16:23:03.087Z,13.10
2022-11-15T16:25:38.727Z,13.10
2022-11-15T16:28:05.733Z,13.10
2022-11-15T16:30:32.644Z,13.10
2022-11-15T16:32:59.719Z,13.10
2022-11-15T16:35:28.089Z,13.10
2022-11-15T16:37:55.073Z,13.10
2022-11-15T16:40:27.800Z,13.10
2022-11-15T16:42:56.523Z,13.00
2022-11-15T16:45:23.949Z,13.00
2022-11-15T16:47:51.141Z,13.00
2022-11-15T16:50:26.020Z,13.00
2022-11-15T16:53:00.061Z,13.00
2022-11-15T16:55:29.431Z,12.90
2022-11-15T16:58:05.599Z,12.90
2022-11-15T17:00:33.584Z,12.90
2022-11-15T17:03:00.815Z,12.90
2022-11-15T17:05:27.912Z,12.90
2022-11-15T17:07:56.481Z,12.90
2022-11-15T17:10:24.736Z,12.80
2022-11-15T17:12:52.589Z,12.80
2022-11-15T17:15:19.814Z,12.80
2022-11-15T17:17:52.673Z,12.80
2022-11-15T17:20:21.728Z,12.70
2022-11-15T17:22:48.649Z,12.70
2022-11-15T17:25:16.999Z,12.70
2022-11-15T17:27:43.958Z,12.70
2022-11-15T17:30:13.359Z,12.70
2022-11-15T17:32:40.354Z,12.70
2022-11-15T17:35:14.844Z,12.60
2022-11-15T17:37:42.656Z,12.60
2022-11-15T17:40:10.790Z,12.70
2022-11-15T17:42:41.113Z,12.70
2022-11-15T17:45:10.332Z,12.70
2022-11-15T17:47:37.537Z,12.70
2022-11-15T17:50:05.202Z,12.70
2022-11-15T17:52:32.320Z,12.70
2022-11-15T17:54:59.192Z,12.70
2022-11-15T17:57:26.099Z,12.70
2022-11-15T17:59:55.256Z,12.70
2022-11-15T18:02:22.263Z,12.70
2022-11-15T18:04:49.232Z,12.70
2022-11-15T18:07:16.273Z,12.70
2022-11-15T18:09:44.096Z,12.70
2022-11-15T18:12:11.711Z,12.70
2022-11-15T18:14:39.044Z,12.70
2022-11-15T18:17:07.312Z,12.70
2022-11-15T18:19:34.671Z,12.80
2022-11-15T18:22:04.306Z,12.80
2022-11-15T18:24:33.417Z,12.70
2022-11-15T18:27:01.781Z,12.70
2022-11-15T18:29:29.080Z,12.70
2022-11-15T18:31:56.262Z,12.70
2022-11-15T18:34:26.919Z,12.70
2022-11-15T18:36:53.984Z,12.70
2022-11-15T18:39:21.180Z,12.70
2022-11-15T18:41:48.644Z,12.70
2022-11-15T18:44:16.425Z,12.70
2022-11-15T18:46:45.119Z,12.70
2022-11-15T18:49:13.784Z,12.70
2022-11-15T18:51:44.605Z,12.70
2022-11-15T18:54:13.573Z,12.60
2022-11-15T18:56:40.732Z,12.60
2022-11-15T18:59:08.683Z,12.50
2022-11-15T19:01:37.555Z,12.50
2022-11-15T19:04:08.174Z,12.50
2022-11-15T19:06:38.310Z,12.50
2022-11-15T19:09:07.671Z,12.40
2022-11-15T19:11:36.444Z,12.40
2022-11-15T19:14:05.492Z,12.40
2022-11-15T19:16:34.155Z,12.50
2022-11-15T19:19:04.889Z,12.50
2022-11-15T19:21:32.146Z,12.50
2022-11-15T19:24:00.021Z,12.50
2022-11-15T19:26:29.300Z,12.50
2022-11-15T19:28:57.920Z,12.60
2022-11-15T19:31:26.074Z,12.60
2022-11-15T19:33:53.925Z,12.60
2022-11-15T19:36:22.983Z,12.60
2022-11-15T19:38:50.225Z,12.60
2022-11-15T19:41:18.414Z,12.60
2022-11-15T19:43:53.394Z,12.60
2022-11-15T19:46:23.481Z,12.60
2022-11-15T19:48:51.577Z,12.60
2022-11-15T19:51:21.548Z,12.50
2022-11-15T19:53:49.462Z,12.50
2022-11-15T19:56:18.137Z,12.50
2022-11-15T19:58:47.036Z,12.50
2022-11-15T20:01:18.096Z,12.50
2022-11-15T20:03:46.730Z,12.50
2022-11-15T20:06:18.560Z,12.40
2022-11-15T20:08:47.799Z,12.50
2022-11-15T20:11:16.026Z,12.50
2022-11-15T20:13:43.539Z,12.50
2022-11-15T20:16:16.104Z,12.50
2022-11-15T20:18:43.107Z,12.50
2022-11-15T20:21:10.680Z,12.50
2022-11-15T20:23:38.931Z,12.50
2022-11-15T20:26:07.514Z,12.50
2022-11-15T20:28:36.773Z,12.50
2022-11-15T20:31:04.446Z,12.50
2022-11-15T20:33:32.744Z,12.50
2022-11-15T20:36:03.932Z,12.50
2022-11-15T20:38:30.986Z,12.50
2022-11-15T20:41:00.312Z,12.50
2022-11-15T20:43:27.600Z,12.50
2022-11-15T20:45:54.538Z,12.50
2022-11-15T20:48:21.709Z,12.50
2022-11-15T20:50:50.179Z,12.50
2022-11-15T20:53:19.191Z,12.50
2022-11-15T20:55:48.479Z,12.50
2022-11-15T20:58:16.920Z,12.50
2022-11-15T21:00:44.855Z,12.50
2022-11-15T21:03:13.960Z,12.50
2022-11-15T21:05:42.633Z,12.50
2022-11-15T21:08:12.312Z,12.40
2022-11-15T21:10:59.584Z,12.40
2022-11-15T21:13:26.768Z,12.40
2022-11-15T21:15:56.096Z,12.40
2022-11-15T21:18:23.061Z,12.40
2022-11-15T21:20:50.665Z,12.40
2022-11-15T21:23:18.949Z,12.40
2022-11-15T21:25:48.848Z,12.40
2022-11-15T21:28:15.799Z,12.40
2022-11-15T21:30:42.686Z,12.40
2022-11-15T21:33:09.529Z,12.40
2022-11-15T21:35:36.604Z,12.30
2022-11-15T21:38:03.422Z,12.30
2022-11-15T21:40:31.650Z,12.30
2022-11-15T21:42:58.503Z,12.30
2022-11-15T21:45:25.407Z,12.30
2022-11-15T21:47:52.280Z,12.30
2022-11-15T21:50:19.124Z,12.30
2022-11-15T21:52:47.004Z,12.30
2022-11-15T21:55:13.928Z,12.30
2022-11-15T21:57:42.117Z,12.30
2022-11-15T22:00:28.414Z,12.20
2022-11-15T22:02:55.287Z,12.20
2022-11-15T22:05:22.149Z,12.20
2022-11-15T22:07:49.047Z,12.20
2022-11-15T22:10:15.978Z,12.20
2022-11-15T22:12:44.142Z,12.20
2022-11-15T22:15:11.125Z,12.20
2022-11-15T22:17:56.559Z,12.20
2022-11-15T22:20:43.655Z,12.20
2022-11-15T22:23:10.595Z,12.20
2022-11-15T22:25:37.553Z,12.20
2022-11-15T22:28:05.886Z,12.20
2022-11-15T22:30:32.827Z,12.20
2022-11-15T22:32:59.860Z,12.20
2022-11-15T22:35:27.033Z,12.20
2022-11-15T22:37:53.968Z,12.20
2022-11-15T22:40:21.021Z,12.20
2022-11-15T22:42:47.944Z,12.20
2022-11-15T22:45:16.300Z,12.20
2022-11-15T22:47:43.195Z,12.10
2022-11-15T22:50:10.167Z,12.10
2022-11-15T22:52:37.126Z,12.20
2022-11-15T22:55:04.723Z,12.10
2022-11-15T22:57:31.648Z,12.10
2022-11-15T22:59:58.582Z,12.10
2022-11-15T23:02:27.710Z,12.10
2022-11-15T23:04:54.657Z,12.10
2022-11-15T23:07:21.740Z,12.10
2022-11-15T23:09:52.214Z,12.10
2022-11-15T23:12:37.996Z,12.10
2022-11-15T23:15:05.898Z,12.10
2022-11-15T23:17:34.160Z,12.10
2022-11-15T23:20:11.377Z,12.10
2022-11-15T23:22:48.084Z,12.10
2022-11-15T23:25:15.126Z,12.00
2022-11-15T23:27:42.092Z,12.00
2022-11-15T23:30:28.464Z,12.00
2022-11-15T23:33:15.416Z,11.90
2022-11-15T23:35:42.362Z,11.90
2022-11-15T23:38:09.316Z,11.90
2022-11-15T23:40:36.239Z,11.90
2022-11-15T23:43:03.142Z,11.90
2022-11-15T23:45:30.080Z,11.90
2022-11-15T23:48:01.526Z,11.90
2022-11-15T23:50:28.919Z,11.90
2022-11-15T23:52:55.848Z,11.90
2022-11-15T23:55:22.742Z,11.90
2022-11-15T23:57:49.673Z,11.90
